Skip Navigation Links Skip Navigation Links

Current Weather

Opa Locka, Miami

For information only: do not use for flight planning or navigation.
Latest weather
Observation time Thursday, January 27, 2022 11:53 PM EST
Local time Friday, January 28, 2022 12:07 AM EST
Flight conditions Marginal Visual Meteorological Conditions
Winds
Wind direction North (350°)
Wind speed 8 mph
Visibility 10 mi.
Sky condition
Ceiling 2,600 ft. broken clouds
Cloud layer broken clouds 2,600 ft.
Temperature 69°F
Dewpoint 63°F
Altimeter 30.04 in.Hg
Derived measurements
Relative humidity 81%
Density altitude 795 ft.
Sea-level pressure 30.04 in.Hg
Climate data
Temperature minimum, last 24 hours 66°F
Temperature maximum, last 24 hours 82°F
Remarks
Fully automated report.
Automated weather observing station with precipitation discriminator.
METAR KOPF 280453Z AUTO 35007KT 10SM BKN026 21/17 A3004 RMK AO2 SLP172 T02060172 402780189

Settings

Location code

InnerDrive.Weather 4.0.6770.0 Release CLR 4.0.30319.42000
Copyright ©2018 Inner Drive Technology. All rights reserved. Portions Copyright ©1986-2018 David Braverman.

Find weather

Site navigation


Skip Navigation Links

Place info

Page info

PayPal - The safer, easier way to pay online!

Return home.

Copyright ©2022 Inner Drive Technology. Purveyors of fine, hand-crafted computer software. Page printed 2022-01-28T05:07:11 UTC.